Dades de l'estació automàtica la Vall d'en Bas
Resum diari
19:30 TU| Temperatura mitjana | 26.3 °C | |
|---|---|---|
| Temperatura màxima | 37.6 °C | 13:39 TU |
| Temperatura mínima | 15.2 °C | 5:11 TU |
| Humitat relativa mitjana | 62% | |
| Precipitació acumulada | 0.0 mm | |
| Ratxa màxima del vent (2 m) | 27.0 km/h - 87º | 13:18 TU |
| Irradiació solar global | 22.3 MJ/m2 | |
El tram horari està expressat en Temps Universal (TU). Cal sumar una hora en horari d'hivern i dues en horari d'estiu per passar a l'hora oficial.
la Vall d'en Bas
| Municipi | La Vall d'en Bas |
|---|---|
| Comarca | Garrotxa |
| Altitud | 461 m |
| Data alta | 16.03.2000 |
| Estat actual | Operativa |
| Període TU |
TM °C |
TX °C |
TN °C |
HRM % |
PPT mm |
VVM (2 m) km/h |
DVM (2 m) graus |
VVX (2 m) km/h |
RS W/m2 |
|---|---|---|---|---|---|---|---|---|---|
| 00:00 - 00:30 | 17.7 | 18.1 | 17.4 | 95 | 0.0 | 0.7 | 342 | 2.9 | 0 |
| 00:30 - 01:00 | 17.5 | 17.7 | 17.3 | 98 | 0.0 | 0.4 | 252 | 4.0 | 0 |
| 01:00 - 01:30 | 17.5 | 17.8 | 17.2 | 98 | 0.0 | 1.4 | 286 | 4.7 | 0 |
| 01:30 - 02:00 | 17.3 | 17.7 | 17.0 | 98 | 0.0 | 1.1 | 213 | 3.2 | 0 |
| 02:00 - 02:30 | 17.2 | 17.4 | 16.8 | 99 | 0.0 | 0.7 | 235 | 2.9 | 0 |
| 02:30 - 03:00 | 16.5 | 16.9 | 16.3 | 100 | 0.0 | 0.4 | 301 | 2.9 | 0 |
| 03:00 - 03:30 | 16.2 | 16.4 | 15.9 | 100 | 0.0 | 0.4 | 242 | 3.2 | 0 |
| 03:30 - 04:00 | 16.2 | 16.4 | 16.0 | 100 | 0.0 | 0.7 | 243 | 3.6 | 0 |
| 04:00 - 04:30 | 15.9 | 16.3 | 15.7 | 100 | 0.0 | 0.7 | 292 | 4.0 | 0 |
| 04:30 - 05:00 | 15.7 | 15.9 | 15.5 | 100 | 0.0 | 1.4 | 249 | 4.0 | 0 |
| 05:00 - 05:30 | 15.6 | 15.9 | 15.2 | 100 | 0.0 | 0.7 | 235 | 3.6 | 2 |
| 05:30 - 06:00 | 15.5 | 15.8 | 15.3 | 100 | 0.0 | 0.4 | 321 | 3.6 | 16 |
| 06:00 - 06:30 | 16.7 | 18.2 | 15.4 | 100 | 0.0 | 0.7 | 223 | 2.5 | 106 |
| 06:30 - 07:00 | 19.9 | 21.2 | 18.4 | 86 | 0.0 | 0.4 | 215 | 2.5 | 209 |
| 07:00 - 07:30 | 22.2 | 23.6 | 21.0 | 77 | 0.0 | 0.7 | 318 | 2.2 | 301 |
| 07:30 - 08:00 | 24.9 | 26.5 | 23.7 | 66 | 0.0 | 1.1 | 184 | 3.2 | 398 |
| 08:00 - 08:30 | 27.1 | 28.2 | 26.3 | 58 | 0.0 | 0.7 | 329 | 3.2 | 490 |
| 08:30 - 09:00 | 29.0 | 30.2 | 27.3 | 51 | 0.0 | 1.4 | 113 | 6.5 | 571 |
| 09:00 - 09:30 | 29.8 | 30.5 | 29.4 | 46 | 0.0 | 3.2 | 20 | 9.4 | 645 |
| 09:30 - 10:00 | 31.0 | 32.1 | 29.9 | 43 | 0.0 | 2.2 | 258 | 7.2 | 708 |
| 10:00 - 10:30 | 32.2 | 33.3 | 31.6 | 41 | 0.0 | 2.5 | 234 | 9.0 | 757 |
| 10:30 - 11:00 | 33.1 | 33.6 | 32.7 | 40 | 0.0 | 2.5 | 27 | 8.6 | 792 |
| 11:00 - 11:30 | 33.5 | 34.4 | 32.6 | 38 | 0.0 | 3.6 | 356 | 7.9 | 814 |
| 11:30 - 12:00 | 34.3 | 35.0 | 33.6 | 35 | 0.0 | 4.0 | 32 | 11.2 | 820 |
| 12:00 - 12:30 | 34.5 | 35.2 | 33.9 | 33 | 0.0 | 5.4 | 34 | 15.5 | 815 |
| 12:30 - 13:00 | 34.9 | 35.6 | 34.3 | 30 | 0.0 | 5.4 | 31 | 13.3 | 794 |
| 13:00 - 13:30 | 35.6 | 36.3 | 35.0 | 26 | 0.0 | 6.1 | 83 | 27.0 | 758 |
| 13:30 - 14:00 | 36.6 | 37.6 | 35.8 | 25 | 0.0 | 3.6 | 136 | 16.2 | 704 |
| 14:00 - 14:30 | 36.2 | 36.9 | 35.8 | 26 | 0.0 | 4.0 | 128 | 14.4 | 643 |
| 14:30 - 15:00 | 35.7 | 35.8 | 35.5 | 28 | 0.0 | 4.7 | 143 | 17.6 | 569 |
| 15:00 - 15:30 | 35.0 | 35.6 | 34.4 | 32 | 0.0 | 5.8 | 151 | 17.6 | 484 |
| 15:30 - 16:00 | 34.2 | 34.7 | 33.9 | 36 | 0.0 | 6.5 | 166 | 16.2 | 392 |
| 16:00 - 16:30 | 33.6 | 33.9 | 33.5 | 37 | 0.0 | 5.8 | 162 | 14.4 | 298 |
| 16:30 - 17:00 | 33.1 | 33.5 | 32.9 | 35 | 0.0 | 5.4 | 168 | 14.0 | 207 |
| 17:00 - 17:30 | 32.6 | 32.8 | 32.2 | 36 | 0.0 | 3.2 | 159 | 11.2 | 117 |
| 17:30 - 18:00 | 30.7 | 32.2 | 29.7 | 43 | 0.0 | 4.7 | 288 | 8.6 | 33 |
| 18:00 - 18:30 | 29.0 | 29.7 | 28.0 | 52 | 0.0 | 3.6 | 261 | 7.6 | 2 |
| 18:30 - 19:00 | 26.9 | 28.0 | 25.8 | 56 | 0.0 | 1.4 | 282 | 5.4 | 0 |
| 19:00 - 19:30 | 25.3 | 26.1 | 24.4 | 60 | 0.0 | 1.4 | 247 | 4.3 | 0 |
| 19:30 - 20:00 | 23.7 | 24.4 | 23.3 | 68 | 0.0 | 1.1 | 225 | 2.9 | 0 |
Les dades en taronja només han passat un control de qualitat automàtic. Resta pendent la seva validació definitiva.